Laoag, Philippines
Current Conditions -  °F | °C
As of 11:00 AM on Sunday 26 Oct 2014 (Local Time) from RPLI Reporting Station
Scattered Clouds Scattered Clouds  
Wind Chill: 86°   Ceiling: Unl
Heat Index: 95°   Visibility: 6mi
Dew Point: 75°   Wind: 7mph
Humidity: 70%   Direction: 320°NW
Pressure: 29.91"   Gusts: NA
Location:  18.2°N, 120.59°E
Report Text: RPLI 260300Z 32006KT 9999 FEW019 SCT100 30/24 Q1013 NOSIG RMK A2991
Loading
Personal Weather Stations






























Interactive Weather Map
Tropical Storm Tracking
New forecast layout! Learn more

10-Day Weather Forecast

Advertisements
Track Severe Weather on mobile